Oracle, AZ (85623)

3:28 AM MST on September 19, 2014 (GMT -0700)
Oaks | Change Station
CLOSE
Current Station
Personal Weather Station
Location: Oracle, AZ
Elevation: 4550 ft
Nearby Weather Stations

Elev 4550 ft 32.61 °N, 110.78 °W | Updated 7 minutes ago

Mostly Cloudy
Mostly Cloudy
64.4 °F
Feels Like 64.4 °F
N
1.0
Wind Variable Wind from SSE
Gusts 0.0 mph

Today
High -- | Low -- °F
--% Chance of Precip.
Yesterday
High -- | Low -- °F
Precip. -- in
6:09 AM 6:23 PM
Waning Crescent, 20% visible
Pressure 29.76 in
Visibility 10.0 miles
Clouds Overcast 8000 ft
Dew Point 61 °F
Humidity 88%
Rainfall 0.00 in
Snow Depth 0 in , 0 in , 1 in
UV 0.0 out of 12
Pollen .90 out of 12
Air Quality Not available.
Flu Activity Not available.
METAR KDMA 190958Z AUTO 16005KT 10SM OVC080 23/20 A2988 RMK AO2 SLP078 T02300204 $

More Conditions Fewer Conditions

Pressure 29.76 in
Visibility 10.0 miles
Clouds Overcast 8000 ft
Dew Point 61 °F
Humidity 88%
Rainfall 0.00 in
Snow Depth 0 in , 0 in , 1 in
UV 0.0 out of 12
Pollen .90 out of 12
Air Quality Not available.
Flu Activity Not available.
METAR KDMA 190958Z AUTO 16005KT 10SM OVC080 23/20 A2988 RMK AO2 SLP078 T02300204 $

More Conditions Fewer Conditions

10-Day Weather Forecast

Almanac

Astronomy

Sep. 19, 2014 Rise Set
Actual Time 6:09 AM MST 6:23 PM MST
Civil Twilight 5:44 AM MST 6:48 PM MST
Nautical Twilight 5:16 AM MST 7:17 PM MST
Astronomical Twilight 4:46 AM MST 7:46 PM MST
Moon 2:08 AM MST 3:45 PM MST
Length of Visible Light 13h 03m
Length of Day
12h 14m
Tomorrow will be 2m 0s shorter.
Waning Crescent, 20% of the Moon is Illuminated
Today
Waning Crescent
Sep 24
New
Oct 1
First Quarter
Oct 8
Full
Oct 15
Last Quarter

Today's Extremes

State Highs State Lows

Community

WunderPhotos

Upload Photos

1,754,583 photos uploaded!

Nearby

Snow Depth

Station Depth Elevation
White Horse Lake 0 in 7180 ft
Wildcat 0 in 7850 ft
Workman Creek 1 in 6900 ft
Snowslide Canyon 0 in 9730 ft
Promontory 0 in 7930 ft

Earthquake Activity

City Distance Mag. Time & Date
No recent earthquake activity has been reported nearby.
Minimum magnitude displayed is 2.5.

Coastal Water Temperatures

Place Temperature
No Stations Reporting

Nearby Weather Stations